sensor_id;sensor_type;location;lat;lon;timestamp;pressure;altitude;pressure_sealevel;temperature;humidity
16580;BME280;8402;51.466;6.806;2023-06-05T00:01:05;101854.13;;;18.77;52.27
16580;BME280;8402;51.466;6.806;2023-06-05T00:03:36;101850.13;;;18.74;52.77
16580;BME280;8402;51.466;6.806;2023-06-05T00:06:07;101853.78;;;18.66;53.38
16580;BME280;8402;51.466;6.806;2023-06-05T00:08:37;101850.28;;;18.57;53.44
16580;BME280;8402;51.466;6.806;2023-06-05T00:11:07;101848.94;;;18.51;53.48
16580;BME280;8402;51.466;6.806;2023-06-05T00:13:39;101853.94;;;18.49;54.04
16580;BME280;8402;51.466;6.806;2023-06-05T00:16:09;101851.56;;;18.47;53.46
16580;BME280;8402;51.466;6.806;2023-06-05T00:18:39;101852.00;;;18.37;54.50
16580;BME280;8402;51.466;6.806;2023-06-05T00:21:10;101856.56;;;18.33;54.15
16580;BME280;8402;51.466;6.806;2023-06-05T00:23:39;101849.09;;;18.33;54.54
16580;BME280;8402;51.466;6.806;2023-06-05T00:26:10;101852.81;;;18.37;54.23
16580;BME280;8402;51.466;6.806;2023-06-05T00:28:42;101859.91;;;18.38;56.27
16580;BME280;8402;51.466;6.806;2023-06-05T00:31:13;101852.56;;;18.30;54.94
16580;BME280;8402;51.466;6.806;2023-06-05T00:33:45;101863.19;;;18.32;54.83
16580;BME280;8402;51.466;6.806;2023-06-05T00:36:15;101854.16;;;18.31;55.02
16580;BME280;8402;51.466;6.806;2023-06-05T00:38:45;101849.31;;;18.28;55.23
16580;BME280;8402;51.466;6.806;2023-06-05T00:41:16;101851.34;;;18.19;55.59
16580;BME280;8402;51.466;6.806;2023-06-05T00:43:48;101852.16;;;18.20;55.45
16580;BME280;8402;51.466;6.806;2023-06-05T00:46:19;101853.66;;;18.17;55.41
16580;BME280;8402;51.466;6.806;2023-06-05T00:48:49;101856.06;;;18.19;54.96
16580;BME280;8402;51.466;6.806;2023-06-05T00:51:19;101852.31;;;18.23;55.14
16580;BME280;8402;51.466;6.806;2023-06-05T00:53:50;101850.94;;;18.29;54.97
16580;BME280;8402;51.466;6.806;2023-06-05T00:56:20;101849.81;;;18.30;54.90
16580;BME280;8402;51.466;6.806;2023-06-05T00:58:53;101850.94;;;18.29;55.32
16580;BME280;8402;51.466;6.806;2023-06-05T01:01:25;101845.88;;;18.19;55.38
16580;BME280;8402;51.466;6.806;2023-06-05T01:03:55;101856.34;;;18.05;56.11
16580;BME280;8402;51.466;6.806;2023-06-05T01:06:27;101854.06;;;18.07;55.64
16580;BME280;8402;51.466;6.806;2023-06-05T01:08:58;101855.88;;;18.03;55.69
16580;BME280;8402;51.466;6.806;2023-06-05T01:11:32;101847.84;;;17.98;56.59
16580;BME280;8402;51.466;6.806;2023-06-05T01:14:14;101846.88;;;17.81;57.43
16580;BME280;8402;51.466;6.806;2023-06-05T01:16:48;101845.16;;;17.68;56.98
16580;BME280;8402;51.466;6.806;2023-06-05T01:19:21;101841.81;;;17.63;56.91
16580;BME280;8402;51.466;6.806;2023-06-05T01:21:52;101836.41;;;17.54;57.48
16580;BME280;8402;51.466;6.806;2023-06-05T01:24:25;101841.09;;;17.53;57.64
16580;BME280;8402;51.466;6.806;2023-06-05T01:27:02;101831.59;;;17.51;57.70
16580;BME280;8402;51.466;6.806;2023-06-05T01:29:51;101832.94;;;17.45;58.26
16580;BME280;8402;51.466;6.806;2023-06-05T01:32:29;101840.66;;;17.43;58.05
16580;BME280;8402;51.466;6.806;2023-06-05T01:35:05;101834.59;;;17.37;57.81
16580;BME280;8402;51.466;6.806;2023-06-05T01:37:37;101832.16;;;17.36;57.93
16580;BME280;8402;51.466;6.806;2023-06-05T01:40:13;101827.81;;;17.34;58.07
16580;BME280;8402;51.466;6.806;2023-06-05T01:42:44;101833.78;;;17.37;57.20
16580;BME280;8402;51.466;6.806;2023-06-05T01:45:15;101835.59;;;17.32;57.40
16580;BME280;8402;51.466;6.806;2023-06-05T01:47:46;101835.66;;;17.24;57.59
16580;BME280;8402;51.466;6.806;2023-06-05T01:50:17;101828.41;;;17.19;57.93
16580;BME280;8402;51.466;6.806;2023-06-05T01:52:48;101828.06;;;17.21;57.90
16580;BME280;8402;51.466;6.806;2023-06-05T01:55:22;101830.34;;;17.19;58.47
16580;BME280;8402;51.466;6.806;2023-06-05T01:57:54;101839.72;;;17.18;57.72
16580;BME280;8402;51.466;6.806;2023-06-05T02:00:24;101828.75;;;17.18;57.86
16580;BME280;8402;51.466;6.806;2023-06-05T02:02:54;101829.25;;;17.11;57.52
16580;BME280;8402;51.466;6.806;2023-06-05T02:05:24;101822.19;;;17.10;57.95
16580;BME280;8402;51.466;6.806;2023-06-05T02:07:56;101821.22;;;17.06;58.08
16580;BME280;8402;51.466;6.806;2023-06-05T02:10:35;101821.31;;;16.89;59.58
16580;BME280;8402;51.466;6.806;2023-06-05T02:13:09;101833.47;;;16.79;59.11
16580;BME280;8402;51.466;6.806;2023-06-05T02:15:40;101828.81;;;16.80;58.96
16580;BME280;8402;51.466;6.806;2023-06-05T02:18:12;101811.56;;;16.79;59.33
16580;BME280;8402;51.466;6.806;2023-06-05T02:20:42;101813.16;;;16.80;59.41
16580;BME280;8402;51.466;6.806;2023-06-05T02:23:12;101819.44;;;16.81;58.97
16580;BME280;8402;51.466;6.806;2023-06-05T02:25:45;101820.59;;;16.71;60.25
16580;BME280;8402;51.466;6.806;2023-06-05T02:28:15;101820.75;;;16.66;59.49
16580;BME280;8402;51.466;6.806;2023-06-05T02:30:47;101824.78;;;16.68;59.12
16580;BME280;8402;51.466;6.806;2023-06-05T02:33:17;101822.69;;;16.65;59.41
16580;BME280;8402;51.466;6.806;2023-06-05T02:35:47;101828.19;;;16.65;59.47
16580;BME280;8402;51.466;6.806;2023-06-05T02:38:18;101825.28;;;16.70;59.51
16580;BME280;8402;51.466;6.806;2023-06-05T02:40:53;101828.50;;;16.72;60.41
16580;BME280;8402;51.466;6.806;2023-06-05T02:43:23;101825.44;;;16.74;59.13
16580;BME280;8402;51.466;6.806;2023-06-05T02:45:53;101819.28;;;16.68;59.46
16580;BME280;8402;51.466;6.806;2023-06-05T02:48:23;101818.81;;;16.66;59.72
16580;BME280;8402;51.466;6.806;2023-06-05T02:50:53;101816.72;;;16.63;59.65
16580;BME280;8402;51.466;6.806;2023-06-05T02:53:23;101812.72;;;16.61;59.71
16580;BME280;8402;51.466;6.806;2023-06-05T02:55:55;101811.59;;;16.62;60.70
16580;BME280;8402;51.466;6.806;2023-06-05T02:58:28;101810.78;;;16.61;59.77
16580;BME280;8402;51.466;6.806;2023-06-05T03:00:58;101807.28;;;16.52;59.90
16580;BME280;8402;51.466;6.806;2023-06-05T03:03:30;101807.91;;;16.49;60.14
16580;BME280;8402;51.466;6.806;2023-06-05T03:06:02;101808.72;;;16.49;60.33
16580;BME280;8402;51.466;6.806;2023-06-05T03:08:34;101806.31;;;16.48;60.10
16580;BME280;8402;51.466;6.806;2023-06-05T03:11:10;101804.53;;;16.52;60.32
16580;BME280;8402;51.466;6.806;2023-06-05T03:13:40;101805.47;;;16.56;59.67
16580;BME280;8402;51.466;6.806;2023-06-05T03:16:10;101808.50;;;16.63;59.82
16580;BME280;8402;51.466;6.806;2023-06-05T03:18:40;101799.34;;;16.59;59.81
16580;BME280;8402;51.466;6.806;2023-06-05T03:21:10;101800.63;;;16.62;59.50
16580;BME280;8402;51.466;6.806;2023-06-05T03:23:41;101799.81;;;16.61;59.60
16580;BME280;8402;51.466;6.806;2023-06-05T03:26:13;101799.81;;;16.61;59.95
16580;BME280;8402;51.466;6.806;2023-06-05T03:28:44;101802.72;;;16.56;59.26
16580;BME280;8402;51.466;6.806;2023-06-05T03:31:14;101805.50;;;16.47;59.27
16580;BME280;8402;51.466;6.806;2023-06-05T03:33:44;101796.38;;;16.35;60.21
16580;BME280;8402;51.466;6.806;2023-06-05T03:36:15;101794.63;;;16.30;60.14
16580;BME280;8402;51.466;6.806;2023-06-05T03:38:46;101798.34;;;16.26;60.16
16580;BME280;8402;51.466;6.806;2023-06-05T03:41:19;101799.94;;;16.27;60.24
16580;BME280;8402;51.466;6.806;2023-06-05T03:43:49;101798.03;;;16.18;60.22
16580;BME280;8402;51.466;6.806;2023-06-05T03:46:19;101795.78;;;16.12;60.44
16580;BME280;8402;51.466;6.806;2023-06-05T03:48:50;101801.72;;;16.14;60.40
16580;BME280;8402;51.466;6.806;2023-06-05T03:51:25;101803.19;;;16.11;60.97
16580;BME280;8402;51.466;6.806;2023-06-05T03:53:57;101804.97;;;16.07;60.79
16580;BME280;8402;51.466;6.806;2023-06-05T03:56:32;101811.94;;;15.96;62.19
16580;BME280;8402;51.466;6.806;2023-06-05T03:59:09;101814.81;;;15.91;61.40
16580;BME280;8402;51.466;6.806;2023-06-05T04:01:46;101806.94;;;15.89;61.42
16580;BME280;8402;51.466;6.806;2023-06-05T04:04:16;101808.88;;;15.89;61.67
16580;BME280;8402;51.466;6.806;2023-06-05T04:06:48;101809.22;;;15.87;61.33
16580;BME280;8402;51.466;6.806;2023-06-05T04:09:18;101815.31;;;15.84;61.73
16580;BME280;8402;51.466;6.806;2023-06-05T04:11:51;101811.94;;;15.79;61.99
16580;BME280;8402;51.466;6.806;2023-06-05T04:14:21;101812.59;;;15.76;61.96
16580;BME280;8402;51.466;6.806;2023-06-05T04:16:51;101806.63;;;15.74;62.01
16580;BME280;8402;51.466;6.806;2023-06-05T04:19:21;101808.56;;;15.73;61.99
16580;BME280;8402;51.466;6.806;2023-06-05T04:21:51;101816.28;;;15.62;62.71
16580;BME280;8402;51.466;6.806;2023-06-05T04:24:21;101815.16;;;15.63;62.56
16580;BME280;8402;51.466;6.806;2023-06-05T04:26:54;101817.41;;;15.61;62.85
16580;BME280;8402;51.466;6.806;2023-06-05T04:29:27;101809.06;;;15.66;62.50
16580;BME280;8402;51.466;6.806;2023-06-05T04:31:59;101811.31;;;15.64;62.45
16580;BME280;8402;51.466;6.806;2023-06-05T04:34:29;101808.41;;;15.69;62.83
16580;BME280;8402;51.466;6.806;2023-06-05T04:36:59;101810.47;;;15.64;62.54
16580;BME280;8402;51.466;6.806;2023-06-05T04:39:30;101813.53;;;15.62;62.59
16580;BME280;8402;51.466;6.806;2023-06-05T04:42:03;101809.84;;;15.58;62.59
16580;BME280;8402;51.466;6.806;2023-06-05T04:44:41;101813.53;;;15.54;62.78
16580;BME280;8402;51.466;6.806;2023-06-05T04:47:11;101812.88;;;15.48;62.84
16580;BME280;8402;51.466;6.806;2023-06-05T04:49:41;101809.00;;;15.49;62.91
16580;BME280;8402;51.466;6.806;2023-06-05T04:52:14;101803.53;;;15.49;62.99
16580;BME280;8402;51.466;6.806;2023-06-05T04:54:44;101806.13;;;15.54;62.91
16580;BME280;8402;51.466;6.806;2023-06-05T04:57:17;101811.59;;;15.54;63.94
16580;BME280;8402;51.466;6.806;2023-06-05T04:59:48;101808.38;;;15.52;63.11
16580;BME280;8402;51.466;6.806;2023-06-05T05:02:19;101810.63;;;15.50;63.32
16580;BME280;8402;51.466;6.806;2023-06-05T05:04:49;101807.72;;;15.47;63.90
16580;BME280;8402;51.466;6.806;2023-06-05T05:07:19;101812.41;;;15.46;63.42
16580;BME280;8402;51.466;6.806;2023-06-05T05:09:53;101810.47;;;15.47;63.27
16580;BME280;8402;51.466;6.806;2023-06-05T05:12:25;101804.84;;;15.52;63.33
16580;BME280;8402;51.466;6.806;2023-06-05T05:14:55;101805.50;;;15.57;63.57
16580;BME280;8402;51.466;6.806;2023-06-05T05:17:26;101805.63;;;15.61;63.44
16580;BME280;8402;51.466;6.806;2023-06-05T05:19:56;101811.09;;;15.61;63.67
16580;BME280;8402;51.466;6.806;2023-06-05T05:22:26;101810.81;;;15.62;63.86
16580;BME280;8402;51.466;6.806;2023-06-05T05:24:56;101811.94;;;15.61;63.89
16580;BME280;8402;51.466;6.806;2023-06-05T05:27:29;101823.88;;;15.65;64.27
16580;BME280;8402;51.466;6.806;2023-06-05T05:29:59;101813.53;;;15.62;64.21
16580;BME280;8402;51.466;6.806;2023-06-05T05:32:29;101817.75;;;15.68;64.02
16580;BME280;8402;51.466;6.806;2023-06-05T05:34:59;101820.78;;;15.76;63.93
16580;BME280;8402;51.466;6.806;2023-06-05T05:37:31;101811.28;;;15.82;63.83
16580;BME280;8402;51.466;6.806;2023-06-05T05:40:02;101817.72;;;15.86;63.71
16580;BME280;8402;51.466;6.806;2023-06-05T05:42:36;101816.44;;;15.92;63.76
16580;BME280;8402;51.466;6.806;2023-06-05T05:45:08;101822.22;;;15.99;63.71
16580;BME280;8402;51.466;6.806;2023-06-05T05:47:38;101816.56;;;16.04;63.88
16580;BME280;8402;51.466;6.806;2023-06-05T05:50:08;101818.03;;;16.10;64.26
16580;BME280;8402;51.466;6.806;2023-06-05T05:52:39;101818.97;;;16.14;63.54
16580;BME280;8402;51.466;6.806;2023-06-05T05:55:10;101820.75;;;16.19;63.83
16580;BME280;8402;51.466;6.806;2023-06-05T05:57:43;101810.59;;;16.19;63.77
16580;BME280;8402;51.466;6.806;2023-06-05T06:00:14;101813.78;;;16.21;63.67
16580;BME280;8402;51.466;6.806;2023-06-05T06:02:44;101813.63;;;16.27;63.60
16580;BME280;8402;51.466;6.806;2023-06-05T06:05:14;101810.88;;;16.27;63.88
16580;BME280;8402;51.466;6.806;2023-06-05T06:07:45;101813.97;;;16.25;64.50
16580;BME280;8402;51.466;6.806;2023-06-05T06:10:15;101818.13;;;16.31;63.93
16580;BME280;8402;51.466;6.806;2023-06-05T06:12:47;101826.03;;;16.33;63.97
16580;BME280;8402;51.466;6.806;2023-06-05T06:15:17;101817.13;;;16.36;63.67
16580;BME280;8402;51.466;6.806;2023-06-05T06:17:48;101816.63;;;16.42;63.20
16580;BME280;8402;51.466;6.806;2023-06-05T06:20:18;101814.06;;;16.46;63.69
16580;BME280;8402;51.466;6.806;2023-06-05T06:22:49;101811.00;;;16.47;63.76
16580;BME280;8402;51.466;6.806;2023-06-05T06:25:20;101812.09;;;16.55;63.83
16580;BME280;8402;51.466;6.806;2023-06-05T06:27:55;101819.47;;;16.63;64.37
16580;BME280;8402;51.466;6.806;2023-06-05T06:30:26;101815.28;;;16.74;64.36
16580;BME280;8402;51.466;6.806;2023-06-05T06:32:59;101816.31;;;16.91;63.57
16580;BME280;8402;51.466;6.806;2023-06-05T06:35:31;101821.19;;;17.15;63.38
16580;BME280;8402;51.466;6.806;2023-06-05T06:38:01;101810.03;;;17.41;63.32
16580;BME280;8402;51.466;6.806;2023-06-05T06:40:32;101819.53;;;17.64;62.56
16580;BME280;8402;51.466;6.806;2023-06-05T06:43:04;101813.50;;;17.92;62.47
16580;BME280;8402;51.466;6.806;2023-06-05T06:45:34;101806.50;;;18.15;61.47
16580;BME280;8402;51.466;6.806;2023-06-05T06:48:04;101816.59;;;18.35;60.92
16580;BME280;8402;51.466;6.806;2023-06-05T06:50:34;101814.25;;;18.58;60.89
16580;BME280;8402;51.466;6.806;2023-06-05T06:53:04;101810.81;;;18.86;60.42
16580;BME280;8402;51.466;6.806;2023-06-05T06:55:35;101817.22;;;19.14;60.38
16580;BME280;8402;51.466;6.806;2023-06-05T06:58:07;101822.13;;;19.33;59.26
16580;BME280;8402;51.466;6.806;2023-06-05T07:00:37;101817.50;;;19.49;58.63
16580;BME280;8402;51.466;6.806;2023-06-05T07:03:08;101816.31;;;19.75;58.46
16580;BME280;8402;51.466;6.806;2023-06-05T07:05:38;101811.84;;;19.98;58.17
16580;BME280;8402;51.466;6.806;2023-06-05T07:08:08;101812.38;;;20.04;57.15
16580;BME280;8402;51.466;6.806;2023-06-05T07:10:39;101817.66;;;20.25;57.67
16580;BME280;8402;51.466;6.806;2023-06-05T07:13:12;101812.75;;;20.46;56.77
16580;BME280;8402;51.466;6.806;2023-06-05T07:15:42;101811.66;;;20.67;55.69
16580;BME280;8402;51.466;6.806;2023-06-05T07:18:12;101816.53;;;20.89;56.32
16580;BME280;8402;51.466;6.806;2023-06-05T07:20:45;101812.75;;;21.13;56.55
16580;BME280;8402;51.466;6.806;2023-06-05T07:23:15;101815.78;;;21.43;55.17
16580;BME280;8402;51.466;6.806;2023-06-05T07:25:47;101810.28;;;21.62;54.73
16580;BME280;8402;51.466;6.806;2023-06-05T07:28:20;101811.75;;;21.76;54.28
16580;BME280;8402;51.466;6.806;2023-06-05T07:30:51;101815.06;;;21.85;53.36
16580;BME280;8402;51.466;6.806;2023-06-05T07:33:21;101816.94;;;22.00;53.62
16580;BME280;8402;51.466;6.806;2023-06-05T07:35:58;101812.47;;;22.11;52.35
16580;BME280;8402;51.466;6.806;2023-06-05T07:38:28;101804.84;;;22.28;52.77
16580;BME280;8402;51.466;6.806;2023-06-05T07:40:59;101804.50;;;22.52;52.49
16580;BME280;8402;51.466;6.806;2023-06-05T07:43:34;101803.25;;;22.72;50.81
16580;BME280;8402;51.466;6.806;2023-06-05T07:46:06;101805.94;;;22.92;50.91
16580;BME280;8402;51.466;6.806;2023-06-05T07:48:37;101807.72;;;23.07;50.70
16580;BME280;8402;51.466;6.806;2023-06-05T07:51:07;101803.13;;;23.15;49.88
16580;BME280;8402;51.466;6.806;2023-06-05T07:53:38;101807.38;;;23.39;50.44
16580;BME280;8402;51.466;6.806;2023-06-05T07:56:08;101804.59;;;23.65;50.13
16580;BME280;8402;51.466;6.806;2023-06-05T07:58:41;101796.28;;;23.65;49.03
16580;BME280;8402;51.466;6.806;2023-06-05T08:01:11;101807.53;;;23.79;48.71
16580;BME280;8402;51.466;6.806;2023-06-05T08:03:42;101803.72;;;23.95;48.34
16580;BME280;8402;51.466;6.806;2023-06-05T08:06:13;101795.63;;;24.16;47.92
16580;BME280;8402;51.466;6.806;2023-06-05T08:08:43;101805.44;;;24.43;47.85
16580;BME280;8402;51.466;6.806;2023-06-05T08:11:13;101801.63;;;24.66;47.08
16580;BME280;8402;51.466;6.806;2023-06-05T08:13:45;101796.94;;;24.77;45.94
16580;BME280;8402;51.466;6.806;2023-06-05T08:16:15;101796.25;;;24.87;45.66
16580;BME280;8402;51.466;6.806;2023-06-05T08:18:45;101787.53;;;24.92;45.24
16580;BME280;8402;51.466;6.806;2023-06-05T08:21:16;101786.81;;;25.03;45.31
16580;BME280;8402;51.466;6.806;2023-06-05T08:23:46;101778.84;;;24.97;45.38
16580;BME280;8402;51.466;6.806;2023-06-05T08:26:18;101790.06;;;25.12;45.22
16580;BME280;8402;51.466;6.806;2023-06-05T08:28:51;101785.38;;;25.27;44.77
16580;BME280;8402;51.466;6.806;2023-06-05T08:31:21;101783.44;;;25.34;44.56
16580;BME280;8402;51.466;6.806;2023-06-05T08:33:51;101783.84;;;25.36;44.34
16580;BME280;8402;51.466;6.806;2023-06-05T08:36:21;101779.94;;;25.51;44.15
16580;BME280;8402;51.466;6.806;2023-06-05T08:38:51;101782.75;;;25.62;43.81
16580;BME280;8402;51.466;6.806;2023-06-05T08:41:23;101780.84;;;25.81;43.97
16580;BME280;8402;51.466;6.806;2023-06-05T08:43:58;101779.28;;;25.97;43.15
16580;BME280;8402;51.466;6.806;2023-06-05T08:46:28;101778.84;;;25.85;43.06
16580;BME280;8402;51.466;6.806;2023-06-05T08:49:01;101780.06;;;25.84;41.99
16580;BME280;8402;51.466;6.806;2023-06-05T08:51:37;101780.88;;;25.98;42.78
16580;BME280;8402;51.466;6.806;2023-06-05T08:54:09;101775.31;;;25.98;42.25
16580;BME280;8402;51.466;6.806;2023-06-05T08:56:42;101775.34;;;26.02;42.31
16580;BME280;8402;51.466;6.806;2023-06-05T08:59:16;101773.75;;;26.15;42.04
16580;BME280;8402;51.466;6.806;2023-06-05T09:01:47;101774.16;;;26.35;42.27
16580;BME280;8402;51.466;6.806;2023-06-05T09:04:18;101779.34;;;26.47;41.14
16580;BME280;8402;51.466;6.806;2023-06-05T09:06:51;101761.44;;;26.63;42.23
16580;BME280;8402;51.466;6.806;2023-06-05T09:09:21;101761.00;;;26.78;41.98
16580;BME280;8402;51.466;6.806;2023-06-05T09:12:02;101761.00;;;26.89;41.11
16580;BME280;8402;51.466;6.806;2023-06-05T09:14:35;101759.41;;;26.95;40.80
16580;BME280;8402;51.466;6.806;2023-06-05T09:17:12;101750.63;;;27.00;40.78
16580;BME280;8402;51.466;6.806;2023-06-05T09:19:44;101754.59;;;27.06;40.39
16580;BME280;8402;51.466;6.806;2023-06-05T09:22:14;101752.22;;;27.15;39.89
16580;BME280;8402;51.466;6.806;2023-06-05T09:24:56;101746.63;;;27.12;39.76
16580;BME280;8402;51.466;6.806;2023-06-05T09:27:28;101752.53;;;27.32;39.26
16580;BME280;8402;51.466;6.806;2023-06-05T09:30:05;101746.06;;;27.49;38.56
16580;BME280;8402;51.466;6.806;2023-06-05T09:32:35;101745.66;;;27.54;38.69
16580;BME280;8402;51.466;6.806;2023-06-05T09:35:08;101749.69;;;27.46;36.99
16580;BME280;8402;51.466;6.806;2023-06-05T09:37:45;101745.72;;;27.40;38.64
16580;BME280;8402;51.466;6.806;2023-06-05T09:40:15;101744.94;;;27.39;37.96
16580;BME280;8402;51.466;6.806;2023-06-05T09:42:46;101743.66;;;27.58;38.69
16580;BME280;8402;51.466;6.806;2023-06-05T09:45:19;101737.63;;;27.67;38.22
16580;BME280;8402;51.466;6.806;2023-06-05T09:47:49;101742.34;;;27.81;37.10
16580;BME280;8402;51.466;6.806;2023-06-05T09:50:23;101736.66;;;27.95;37.61
16580;BME280;8402;51.466;6.806;2023-06-05T09:52:56;101728.19;;;28.09;37.19
16580;BME280;8402;51.466;6.806;2023-06-05T09:55:26;101741.47;;;27.94;36.76
16580;BME280;8402;51.466;6.806;2023-06-05T09:57:59;101738.16;;;28.10;37.20
16580;BME280;8402;51.466;6.806;2023-06-05T10:00:32;101729.22;;;28.26;35.92
16580;BME280;8402;51.466;6.806;2023-06-05T10:03:10;101733.78;;;28.54;35.98
16580;BME280;8402;51.466;6.806;2023-06-05T10:05:44;101728.78;;;28.76;36.14
16580;BME280;8402;51.466;6.806;2023-06-05T10:08:15;101722.75;;;28.81;35.50
16580;BME280;8402;51.466;6.806;2023-06-05T10:10:46;101718.53;;;29.00;35.26
16580;BME280;8402;51.466;6.806;2023-06-05T10:13:17;101717.91;;;29.19;35.63
16580;BME280;8402;51.466;6.806;2023-06-05T10:15:51;101714.66;;;29.24;34.40
16580;BME280;8402;51.466;6.806;2023-06-05T10:18:22;101715.28;;;29.36;34.83
16580;BME280;8402;51.466;6.806;2023-06-05T10:20:52;101716.06;;;29.40;33.91
16580;BME280;8402;51.466;6.806;2023-06-05T10:23:24;101709.50;;;29.53;33.30
16580;BME280;8402;51.466;6.806;2023-06-05T10:25:56;101705.75;;;29.64;33.53
16580;BME280;8402;51.466;6.806;2023-06-05T10:28:37;101708.59;;;29.60;33.59
16580;BME280;8402;51.466;6.806;2023-06-05T10:31:36;101705.50;;;29.54;32.55
16580;BME280;8402;51.466;6.806;2023-06-05T10:34:30;101699.00;;;29.61;32.81
16580;BME280;8402;51.466;6.806;2023-06-05T10:37:17;101699.13;;;29.77;32.71
16580;BME280;8402;51.466;6.806;2023-06-05T10:40:00;101695.75;;;29.90;32.62
16580;BME280;8402;51.466;6.806;2023-06-05T10:42:31;101693.63;;;29.97;32.93
16580;BME280;8402;51.466;6.806;2023-06-05T10:45:01;101688.25;;;30.10;32.71
16580;BME280;8402;51.466;6.806;2023-06-05T10:47:55;101690.19;;;29.86;30.22
16580;BME280;8402;51.466;6.806;2023-06-05T10:50:27;101692.63;;;30.11;31.68
16580;BME280;8402;51.466;6.806;2023-06-05T10:52:58;101693.84;;;30.33;32.23
16580;BME280;8402;51.466;6.806;2023-06-05T10:55:41;101687.53;;;30.29;29.24
16580;BME280;8402;51.466;6.806;2023-06-05T10:58:12;101686.25;;;30.54;30.60
16580;BME280;8402;51.466;6.806;2023-06-05T11:03:59;101695.41;;;30.58;28.83
16580;BME280;8402;51.466;6.806;2023-06-05T11:06:29;101685.13;;;30.71;29.61
16580;BME280;8402;51.466;6.806;2023-06-05T11:09:13;101685.94;;;30.72;27.67
16580;BME280;8402;51.466;6.806;2023-06-05T11:12:00;101678.34;;;30.72;28.70
16580;BME280;8402;51.466;6.806;2023-06-05T11:14:46;101680.75;;;30.90;28.04
16580;BME280;8402;51.466;6.806;2023-06-05T11:17:26;101681.34;;;30.81;26.41
16580;BME280;8402;51.466;6.806;2023-06-05T11:19:59;101669.69;;;30.83;27.80
16580;BME280;8402;51.466;6.806;2023-06-05T11:22:32;101667.03;;;30.76;28.55
16580;BME280;8402;51.466;6.806;2023-06-05T11:25:26;101674.16;;;30.80;27.89
16580;BME280;8402;51.466;6.806;2023-06-05T11:28:01;101649.81;;;30.77;28.37
16580;BME280;8402;51.466;6.806;2023-06-05T11:30:33;101672.06;;;30.84;27.23
16580;BME280;8402;51.466;6.806;2023-06-05T11:33:16;101667.19;;;30.88;27.73
16580;BME280;8402;51.466;6.806;2023-06-05T11:35:51;101666.22;;;31.15;28.48
16580;BME280;8402;51.466;6.806;2023-06-05T11:38:22;101654.63;;;31.33;27.75
16580;BME280;8402;51.466;6.806;2023-06-05T11:40:53;101652.84;;;31.59;26.88
16580;BME280;8402;51.466;6.806;2023-06-05T11:43:23;101650.38;;;31.61;26.93
16580;BME280;8402;51.466;6.806;2023-06-05T11:45:55;101651.59;;;31.76;26.96
16580;BME280;8402;51.466;6.806;2023-06-05T11:48:26;101650.31;;;31.81;27.06
16580;BME280;8402;51.466;6.806;2023-06-05T11:51:00;101643.91;;;31.96;26.80
16580;BME280;8402;51.466;6.806;2023-06-05T11:53:31;101661.03;;;32.15;26.01
16580;BME280;8402;51.466;6.806;2023-06-05T11:56:12;101651.22;;;32.23;25.24
16580;BME280;8402;51.466;6.806;2023-06-05T11:58:44;101640.97;;;32.33;24.91
16580;BME280;8402;51.466;6.806;2023-06-05T12:01:15;101636.44;;;32.51;25.11
16580;BME280;8402;51.466;6.806;2023-06-05T12:04:02;101642.06;;;32.35;24.52
16580;BME280;8402;51.466;6.806;2023-06-05T12:06:46;101638.75;;;32.40;24.30
16580;BME280;8402;51.466;6.806;2023-06-05T12:09:18;101634.28;;;32.26;24.10
16580;BME280;8402;51.466;6.806;2023-06-05T12:11:49;101633.69;;;32.19;24.76
16580;BME280;8402;51.466;6.806;2023-06-05T12:14:30;101634.38;;;32.23;24.54
16580;BME280;8402;51.466;6.806;2023-06-05T12:17:08;101617.53;;;32.23;23.56
16580;BME280;8402;51.466;6.806;2023-06-05T12:19:38;101622.25;;;32.26;24.30
16580;BME280;8402;51.466;6.806;2023-06-05T12:22:12;101623.38;;;32.45;25.76
16580;BME280;8402;51.466;6.806;2023-06-05T12:24:42;101620.38;;;32.65;23.56
16580;BME280;8402;51.466;6.806;2023-06-05T12:27:12;101613.53;;;32.78;24.17
16580;BME280;8402;51.466;6.806;2023-06-05T12:29:52;101610.09;;;32.45;23.31
16580;BME280;8402;51.466;6.806;2023-06-05T12:32:24;101613.88;;;32.68;24.12
16580;BME280;8402;51.466;6.806;2023-06-05T12:34:54;101612.97;;;32.58;24.52
16580;BME280;8402;51.466;6.806;2023-06-05T12:37:34;101608.22;;;32.55;22.92
16580;BME280;8402;51.466;6.806;2023-06-05T12:40:07;101607.09;;;32.52;23.84
16580;BME280;8402;51.466;6.806;2023-06-05T12:42:54;101607.75;;;32.56;23.88
16580;BME280;8402;51.466;6.806;2023-06-05T12:45:24;101610.94;;;32.58;22.93
16580;BME280;8402;51.466;6.806;2023-06-05T12:47:56;101607.56;;;32.64;23.18
16580;BME280;8402;51.466;6.806;2023-06-05T12:50:27;101601.63;;;32.74;23.81
16580;BME280;8402;51.466;6.806;2023-06-05T12:53:00;101604.22;;;32.81;22.66
16580;BME280;8402;51.466;6.806;2023-06-05T12:55:30;101594.94;;;32.97;22.73
16580;BME280;8402;51.466;6.806;2023-06-05T12:58:00;101593.91;;;32.91;23.12
16580;BME280;8402;51.466;6.806;2023-06-05T13:00:30;101599.66;;;33.00;22.90
16580;BME280;8402;51.466;6.806;2023-06-05T13:03:00;101586.06;;;33.11;23.12
16580;BME280;8402;51.466;6.806;2023-06-05T13:05:31;101586.53;;;33.23;22.34
16580;BME280;8402;51.466;6.806;2023-06-05T13:08:04;101584.91;;;33.22;22.49
16580;BME280;8402;51.466;6.806;2023-06-05T13:10:35;101581.78;;;33.20;21.95
16580;BME280;8402;51.466;6.806;2023-06-05T13:13:07;101586.06;;;33.24;21.41
16580;BME280;8402;51.466;6.806;2023-06-05T13:15:37;101590.31;;;33.29;22.20
16580;BME280;8402;51.466;6.806;2023-06-05T13:18:09;101582.56;;;33.07;21.05
16580;BME280;8402;51.466;6.806;2023-06-05T13:20:39;101585.59;;;33.00;21.32
16580;BME280;8402;51.466;6.806;2023-06-05T13:23:11;101578.88;;;33.10;22.33
16580;BME280;8402;51.466;6.806;2023-06-05T13:25:42;101574.03;;;33.36;21.80
16580;BME280;8402;51.466;6.806;2023-06-05T13:28:12;101574.31;;;33.64;22.79
16580;BME280;8402;51.466;6.806;2023-06-05T13:30:47;101566.41;;;33.72;21.90